sensor_id;sensor_type;location;lat;lon;timestamp;P1;durP1;ratioP1;P2;durP2;ratioP2
58731;SDS011;44508;44.626;21.182;2023-02-23T00:02:24;453.48;;;298.90;;
58731;SDS011;44508;44.626;21.182;2023-02-23T00:04:50;519.53;;;351.17;;
58731;SDS011;44508;44.626;21.182;2023-02-23T00:07:16;606.85;;;427.30;;
58731;SDS011;44508;44.626;21.182;2023-02-23T00:09:44;654.85;;;449.80;;
58731;SDS011;44508;44.626;21.182;2023-02-23T00:12:11;707.30;;;487.77;;
58731;SDS011;44508;44.626;21.182;2023-02-23T00:14:37;718.72;;;494.95;;
58731;SDS011;44508;44.626;21.182;2023-02-23T00:17:03;716.78;;;491.88;;
58731;SDS011;44508;44.626;21.182;2023-02-23T00:19:34;793.55;;;537.17;;
58731;SDS011;44508;44.626;21.182;2023-02-23T00:22:01;907.63;;;608.25;;
58731;SDS011;44508;44.626;21.182;2023-02-23T00:24:27;925.40;;;614.90;;
58731;SDS011;44508;44.626;21.182;2023-02-23T00:26:54;928.28;;;615.13;;
58731;SDS011;44508;44.626;21.182;2023-02-23T00:29:21;867.25;;;581.45;;
58731;SDS011;44508;44.626;21.182;2023-02-23T00:31:48;752.63;;;506.38;;
58731;SDS011;44508;44.626;21.182;2023-02-23T00:34:15;691.72;;;465.77;;
58731;SDS011;44508;44.626;21.182;2023-02-23T00:36:45;690.17;;;457.48;;
58731;SDS011;44508;44.626;21.182;2023-02-23T00:39:14;655.35;;;432.42;;
58731;SDS011;44508;44.626;21.182;2023-02-23T00:41:48;636.40;;;424.42;;
58731;SDS011;44508;44.626;21.182;2023-02-23T00:44:16;654.50;;;437.98;;
58731;SDS011;44508;44.626;21.182;2023-02-23T00:46:42;631.97;;;418.45;;
58731;SDS011;44508;44.626;21.182;2023-02-23T00:49:09;608.25;;;413.42;;
58731;SDS011;44508;44.626;21.182;2023-02-23T00:51:35;621.15;;;414.42;;
58731;SDS011;44508;44.626;21.182;2023-02-23T00:54:03;604.33;;;402.10;;
58731;SDS011;44508;44.626;21.182;2023-02-23T00:56:29;602.70;;;389.13;;
58731;SDS011;44508;44.626;21.182;2023-02-23T00:58:56;592.17;;;394.95;;
58731;SDS011;44508;44.626;21.182;2023-02-23T01:01:22;592.55;;;395.65;;
58731;SDS011;44508;44.626;21.182;2023-02-23T01:03:49;649.80;;;426.23;;
58731;SDS011;44508;44.626;21.182;2023-02-23T01:06:17;624.75;;;419.23;;
58731;SDS011;44508;44.626;21.182;2023-02-23T01:08:44;583.30;;;390.92;;
58731;SDS011;44508;44.626;21.182;2023-02-23T01:11:17;618.42;;;411.95;;
58731;SDS011;44508;44.626;21.182;2023-02-23T01:13:47;588.95;;;390.77;;
58731;SDS011;44508;44.626;21.182;2023-02-23T01:16:15;587.92;;;395.85;;
58731;SDS011;44508;44.626;21.182;2023-02-23T01:18:42;556.45;;;369.45;;
58731;SDS011;44508;44.626;21.182;2023-02-23T01:21:18;557.83;;;370.77;;
58731;SDS011;44508;44.626;21.182;2023-02-23T01:23:44;555.97;;;359.90;;
58731;SDS011;44508;44.626;21.182;2023-02-23T01:26:14;540.88;;;353.55;;
58731;SDS011;44508;44.626;21.182;2023-02-23T01:28:40;567.22;;;365.58;;
58731;SDS011;44508;44.626;21.182;2023-02-23T01:31:09;542.97;;;349.83;;
58731;SDS011;44508;44.626;21.182;2023-02-23T01:33:35;533.25;;;350.45;;
58731;SDS011;44508;44.626;21.182;2023-02-23T01:36:01;538.33;;;357.63;;
58731;SDS011;44508;44.626;21.182;2023-02-23T01:38:27;534.08;;;353.85;;
58731;SDS011;44508;44.626;21.182;2023-02-23T01:40:53;543.90;;;359.80;;
58731;SDS011;44508;44.626;21.182;2023-02-23T01:43:20;543.65;;;358.52;;
58731;SDS011;44508;44.626;21.182;2023-02-23T01:45:51;544.92;;;356.42;;
58731;SDS011;44508;44.626;21.182;2023-02-23T01:48:32;503.35;;;331.45;;
58731;SDS011;44508;44.626;21.182;2023-02-23T01:51:05;511.85;;;336.55;;
58731;SDS011;44508;44.626;21.182;2023-02-23T01:53:34;499.63;;;327.42;;
58731;SDS011;44508;44.626;21.182;2023-02-23T01:56:12;467.70;;;302.27;;
58731;SDS011;44508;44.626;21.182;2023-02-23T01:58:41;443.45;;;277.33;;
58731;SDS011;44508;44.626;21.182;2023-02-23T02:01:08;422.95;;;255.50;;
58731;SDS011;44508;44.626;21.182;2023-02-23T02:03:46;421.73;;;258.60;;
58731;SDS011;44508;44.626;21.182;2023-02-23T02:06:14;374.13;;;229.20;;
58731;SDS011;44508;44.626;21.182;2023-02-23T02:08:43;340.33;;;207.40;;
58731;SDS011;44508;44.626;21.182;2023-02-23T02:11:14;260.00;;;148.82;;
58731;SDS011;44508;44.626;21.182;2023-02-23T02:13:53;155.25;;;99.63;;
58731;SDS011;44508;44.626;21.182;2023-02-23T02:31:46;114.05;;;71.68;;
58731;SDS011;44508;44.626;21.182;2023-02-23T02:39:34;116.70;;;77.35;;
58731;SDS011;44508;44.626;21.182;2023-02-23T02:44:49;120.00;;;79.65;;
58731;SDS011;44508;44.626;21.182;2023-02-23T02:52:54;150.48;;;95.30;;
58731;SDS011;44508;44.626;21.182;2023-02-23T02:55:23;179.73;;;113.85;;
58731;SDS011;44508;44.626;21.182;2023-02-23T02:57:52;190.48;;;118.18;;
58731;SDS011;44508;44.626;21.182;2023-02-23T03:00:22;234.23;;;141.77;;
58731;SDS011;44508;44.626;21.182;2023-02-23T03:06:10;298.30;;;178.18;;
58731;SDS011;44508;44.626;21.182;2023-02-23T03:08:58;323.55;;;208.60;;
58731;SDS011;44508;44.626;21.182;2023-02-23T03:11:48;369.40;;;238.38;;
58731;SDS011;44508;44.626;21.182;2023-02-23T03:20:25;405.30;;;248.57;;
58731;SDS011;44508;44.626;21.182;2023-02-23T03:29:06;543.45;;;355.30;;
58731;SDS011;44508;44.626;21.182;2023-02-23T03:34:34;512.85;;;346.48;;
58731;SDS011;44508;44.626;21.182;2023-02-23T03:37:29;482.27;;;323.83;;
58731;SDS011;44508;44.626;21.182;2023-02-23T03:40:19;447.90;;;288.27;;
58731;SDS011;44508;44.626;21.182;2023-02-23T03:43:06;411.50;;;259.98;;
58731;SDS011;44508;44.626;21.182;2023-02-23T03:45:52;410.88;;;259.98;;
58731;SDS011;44508;44.626;21.182;2023-02-23T03:48:39;424.98;;;265.27;;
58731;SDS011;44508;44.626;21.182;2023-02-23T03:51:27;439.52;;;274.83;;
58731;SDS011;44508;44.626;21.182;2023-02-23T03:54:14;414.20;;;253.25;;
58731;SDS011;44508;44.626;21.182;2023-02-23T03:57:00;421.67;;;254.48;;
58731;SDS011;44508;44.626;21.182;2023-02-23T03:59:47;414.30;;;246.13;;
58731;SDS011;44508;44.626;21.182;2023-02-23T04:02:35;370.45;;;223.43;;
58731;SDS011;44508;44.626;21.182;2023-02-23T04:05:21;323.00;;;196.02;;
58731;SDS011;44508;44.626;21.182;2023-02-23T04:08:08;317.38;;;193.07;;
58731;SDS011;44508;44.626;21.182;2023-02-23T04:11:11;292.20;;;175.82;;
58731;SDS011;44508;44.626;21.182;2023-02-23T04:13:59;284.25;;;175.20;;
58731;SDS011;44508;44.626;21.182;2023-02-23T04:16:27;291.00;;;175.20;;
58731;SDS011;44508;44.626;21.182;2023-02-23T04:18:53;315.38;;;192.50;;
58731;SDS011;44508;44.626;21.182;2023-02-23T04:21:19;340.30;;;209.05;;
58731;SDS011;44508;44.626;21.182;2023-02-23T04:23:45;365.40;;;221.02;;
58731;SDS011;44508;44.626;21.182;2023-02-23T04:26:11;411.10;;;249.88;;
58731;SDS011;44508;44.626;21.182;2023-02-23T04:28:37;402.02;;;247.88;;
58731;SDS011;44508;44.626;21.182;2023-02-23T04:31:04;428.58;;;258.30;;
58731;SDS011;44508;44.626;21.182;2023-02-23T04:33:30;412.65;;;247.43;;
58731;SDS011;44508;44.626;21.182;2023-02-23T04:35:56;400.35;;;241.18;;
58731;SDS011;44508;44.626;21.182;2023-02-23T04:38:22;404.92;;;242.57;;
58731;SDS011;44508;44.626;21.182;2023-02-23T04:40:48;390.80;;;239.98;;
58731;SDS011;44508;44.626;21.182;2023-02-23T04:43:15;414.85;;;253.07;;
58731;SDS011;44508;44.626;21.182;2023-02-23T04:45:41;433.60;;;275.80;;
58731;SDS011;44508;44.626;21.182;2023-02-23T04:48:07;410.75;;;264.42;;
58731;SDS011;44508;44.626;21.182;2023-02-23T04:50:33;420.48;;;263.00;;
58731;SDS011;44508;44.626;21.182;2023-02-23T04:52:59;470.75;;;284.00;;
58731;SDS011;44508;44.626;21.182;2023-02-23T04:55:25;434.52;;;264.92;;
58731;SDS011;44508;44.626;21.182;2023-02-23T04:57:55;408.20;;;260.25;;
58731;SDS011;44508;44.626;21.182;2023-02-23T05:00:23;403.42;;;248.30;;
58731;SDS011;44508;44.626;21.182;2023-02-23T05:02:49;405.33;;;249.27;;
58731;SDS011;44508;44.626;21.182;2023-02-23T05:05:15;396.48;;;241.65;;
58731;SDS011;44508;44.626;21.182;2023-02-23T05:07:41;405.70;;;242.00;;
58731;SDS011;44508;44.626;21.182;2023-02-23T05:10:08;388.02;;;233.73;;
58731;SDS011;44508;44.626;21.182;2023-02-23T05:12:34;381.40;;;231.38;;
58731;SDS011;44508;44.626;21.182;2023-02-23T05:15:00;424.98;;;259.38;;
58731;SDS011;44508;44.626;21.182;2023-02-23T05:17:27;413.52;;;250.10;;
58731;SDS011;44508;44.626;21.182;2023-02-23T05:19:53;399.75;;;240.38;;
58731;SDS011;44508;44.626;21.182;2023-02-23T05:22:20;396.33;;;230.80;;
58731;SDS011;44508;44.626;21.182;2023-02-23T05:24:46;370.30;;;216.57;;
58731;SDS011;44508;44.626;21.182;2023-02-23T05:27:12;389.17;;;225.20;;
58731;SDS011;44508;44.626;21.182;2023-02-23T05:29:39;371.23;;;216.85;;
58731;SDS011;44508;44.626;21.182;2023-02-23T05:32:06;361.08;;;217.85;;
58731;SDS011;44508;44.626;21.182;2023-02-23T05:34:32;371.38;;;220.48;;
58731;SDS011;44508;44.626;21.182;2023-02-23T05:36:59;377.83;;;222.02;;
58731;SDS011;44508;44.626;21.182;2023-02-23T05:39:25;372.95;;;216.32;;
58731;SDS011;44508;44.626;21.182;2023-02-23T05:41:51;370.15;;;221.98;;
58731;SDS011;44508;44.626;21.182;2023-02-23T05:47:20;319.80;;;189.43;;
58731;SDS011;44508;44.626;21.182;2023-02-23T05:49:46;318.83;;;183.07;;
58731;SDS011;44508;44.626;21.182;2023-02-23T05:52:12;281.30;;;162.98;;
58731;SDS011;44508;44.626;21.182;2023-02-23T05:54:38;259.67;;;148.80;;
58731;SDS011;44508;44.626;21.182;2023-02-23T05:57:04;262.10;;;146.95;;
58731;SDS011;44508;44.626;21.182;2023-02-23T05:59:32;246.93;;;142.57;;
58731;SDS011;44508;44.626;21.182;2023-02-23T06:01:58;238.63;;;138.38;;
58731;SDS011;44508;44.626;21.182;2023-02-23T06:04:24;233.00;;;137.52;;
58731;SDS011;44508;44.626;21.182;2023-02-23T06:06:50;225.32;;;132.50;;
58731;SDS011;44508;44.626;21.182;2023-02-23T06:09:16;233.65;;;131.88;;
58731;SDS011;44508;44.626;21.182;2023-02-23T06:11:42;228.57;;;132.20;;
58731;SDS011;44508;44.626;21.182;2023-02-23T06:14:08;215.32;;;127.40;;
58731;SDS011;44508;44.626;21.182;2023-02-23T06:16:34;212.90;;;124.03;;
58731;SDS011;44508;44.626;21.182;2023-02-23T06:19:00;205.73;;;123.82;;
58731;SDS011;44508;44.626;21.182;2023-02-23T06:21:26;190.30;;;113.82;;
58731;SDS011;44508;44.626;21.182;2023-02-23T06:23:52;186.10;;;110.97;;
58731;SDS011;44508;44.626;21.182;2023-02-23T06:26:19;208.27;;;128.05;;
58731;SDS011;44508;44.626;21.182;2023-02-23T06:28:45;268.50;;;155.45;;
58731;SDS011;44508;44.626;21.182;2023-02-23T06:31:11;276.75;;;152.52;;
58731;SDS011;44508;44.626;21.182;2023-02-23T06:33:37;224.60;;;136.30;;
58731;SDS011;44508;44.626;21.182;2023-02-23T06:36:03;289.30;;;177.05;;
58731;SDS011;44508;44.626;21.182;2023-02-23T06:38:29;339.40;;;203.77;;
58731;SDS011;44508;44.626;21.182;2023-02-23T06:40:55;400.55;;;242.38;;
58731;SDS011;44508;44.626;21.182;2023-02-23T06:43:21;404.05;;;249.32;;
58731;SDS011;44508;44.626;21.182;2023-02-23T06:45:47;405.02;;;251.52;;
58731;SDS011;44508;44.626;21.182;2023-02-23T06:48:13;389.45;;;247.07;;
58731;SDS011;44508;44.626;21.182;2023-02-23T06:50:39;361.02;;;228.60;;
58731;SDS011;44508;44.626;21.182;2023-02-23T06:53:06;343.60;;;221.85;;
58731;SDS011;44508;44.626;21.182;2023-02-23T06:55:32;331.02;;;210.75;;
58731;SDS011;44508;44.626;21.182;2023-02-23T06:57:58;336.20;;;199.77;;
58731;SDS011;44508;44.626;21.182;2023-02-23T07:00:24;296.42;;;173.38;;
58731;SDS011;44508;44.626;21.182;2023-02-23T07:02:50;233.02;;;137.90;;
58731;SDS011;44508;44.626;21.182;2023-02-23T07:05:16;106.40;;;63.42;;
58731;SDS011;44508;44.626;21.182;2023-02-23T07:07:42;65.40;;;38.85;;
58731;SDS011;44508;44.626;21.182;2023-02-23T07:10:09;169.60;;;103.72;;
58731;SDS011;44508;44.626;21.182;2023-02-23T07:12:36;49.10;;;28.70;;
58731;SDS011;44508;44.626;21.182;2023-02-23T07:15:02;47.47;;;26.48;;
58731;SDS011;44508;44.626;21.182;2023-02-23T07:17:28;33.10;;;19.17;;
58731;SDS011;44508;44.626;21.182;2023-02-23T07:19:54;30.10;;;19.65;;
58731;SDS011;44508;44.626;21.182;2023-02-23T07:22:20;31.95;;;18.83;;
58731;SDS011;44508;44.626;21.182;2023-02-23T07:24:48;38.80;;;19.65;;
58731;SDS011;44508;44.626;21.182;2023-02-23T07:27:14;39.97;;;21.33;;
58731;SDS011;44508;44.626;21.182;2023-02-23T07:29:40;37.97;;;19.77;;
58731;SDS011;44508;44.626;21.182;2023-02-23T07:32:06;33.45;;;20.42;;
58731;SDS011;44508;44.626;21.182;2023-02-23T07:34:32;35.05;;;19.50;;
58731;SDS011;44508;44.626;21.182;2023-02-23T07:36:59;31.77;;;18.58;;
58731;SDS011;44508;44.626;21.182;2023-02-23T07:39:25;31.58;;;18.33;;
58731;SDS011;44508;44.626;21.182;2023-02-23T07:41:51;31.33;;;17.77;;
58731;SDS011;44508;44.626;21.182;2023-02-23T07:44:17;32.35;;;19.83;;
58731;SDS011;44508;44.626;21.182;2023-02-23T07:46:43;28.95;;;17.27;;
58731;SDS011;44508;44.626;21.182;2023-02-23T07:49:10;33.22;;;18.80;;
58731;SDS011;44508;44.626;21.182;2023-02-23T07:51:37;33.60;;;15.30;;
58731;SDS011;44508;44.626;21.182;2023-02-23T07:54:04;31.75;;;16.63;;
58731;SDS011;44508;44.626;21.182;2023-02-23T07:56:30;32.35;;;17.85;;
58731;SDS011;44508;44.626;21.182;2023-02-23T07:58:57;28.48;;;17.38;;
58731;SDS011;44508;44.626;21.182;2023-02-23T08:01:23;32.28;;;18.08;;
58731;SDS011;44508;44.626;21.182;2023-02-23T08:03:49;25.90;;;14.75;;
58731;SDS011;44508;44.626;21.182;2023-02-23T08:06:15;30.98;;;16.15;;
58731;SDS011;44508;44.626;21.182;2023-02-23T08:08:41;44.30;;;15.95;;
58731;SDS011;44508;44.626;21.182;2023-02-23T08:11:08;23.85;;;13.02;;
58731;SDS011;44508;44.626;21.182;2023-02-23T08:13:35;55.38;;;14.93;;
58731;SDS011;44508;44.626;21.182;2023-02-23T08:16:01;25.15;;;12.88;;
58731;SDS011;44508;44.626;21.182;2023-02-23T08:18:27;24.50;;;12.90;;
58731;SDS011;44508;44.626;21.182;2023-02-23T08:20:59;18.40;;;11.40;;
58731;SDS011;44508;44.626;21.182;2023-02-23T08:23:25;28.23;;;12.57;;
58731;SDS011;44508;44.626;21.182;2023-02-23T08:25:53;25.77;;;13.10;;
58731;SDS011;44508;44.626;21.182;2023-02-23T08:28:19;22.98;;;13.18;;
58731;SDS011;44508;44.626;21.182;2023-02-23T08:30:46;24.52;;;13.13;;
58731;SDS011;44508;44.626;21.182;2023-02-23T08:33:12;20.65;;;12.00;;
58731;SDS011;44508;44.626;21.182;2023-02-23T08:35:38;21.83;;;11.82;;
58731;SDS011;44508;44.626;21.182;2023-02-23T08:38:04;21.73;;;11.25;;
58731;SDS011;44508;44.626;21.182;2023-02-23T08:40:31;24.30;;;13.45;;
58731;SDS011;44508;44.626;21.182;2023-02-23T08:42:57;25.35;;;13.07;;
58731;SDS011;44508;44.626;21.182;2023-02-23T08:45:23;23.48;;;12.35;;
58731;SDS011;44508;44.626;21.182;2023-02-23T08:47:49;23.75;;;11.88;;
58731;SDS011;44508;44.626;21.182;2023-02-23T08:50:16;22.38;;;10.95;;
58731;SDS011;44508;44.626;21.182;2023-02-23T08:52:42;27.05;;;12.95;;
58731;SDS011;44508;44.626;21.182;2023-02-23T08:55:08;24.65;;;13.40;;
58731;SDS011;44508;44.626;21.182;2023-02-23T08:57:35;21.17;;;12.05;;
58731;SDS011;44508;44.626;21.182;2023-02-23T09:00:02;25.38;;;13.18;;
58731;SDS011;44508;44.626;21.182;2023-02-23T09:02:35;21.73;;;13.05;;
58731;SDS011;44508;44.626;21.182;2023-02-23T09:05:01;20.48;;;11.05;;
58731;SDS011;44508;44.626;21.182;2023-02-23T09:07:28;21.75;;;12.93;;
58731;SDS011;44508;44.626;21.182;2023-02-23T09:09:57;25.48;;;12.32;;
58731;SDS011;44508;44.626;21.182;2023-02-23T09:12:23;18.58;;;10.20;;
58731;SDS011;44508;44.626;21.182;2023-02-23T09:14:49;30.48;;;14.52;;
58731;SDS011;44508;44.626;21.182;2023-02-23T09:17:17;24.10;;;13.05;;
58731;SDS011;44508;44.626;21.182;2023-02-23T09:19:44;21.77;;;11.40;;
58731;SDS011;44508;44.626;21.182;2023-02-23T09:22:10;25.98;;;13.52;;
58731;SDS011;44508;44.626;21.182;2023-02-23T09:24:36;26.40;;;13.73;;
58731;SDS011;44508;44.626;21.182;2023-02-23T09:27:02;22.05;;;12.23;;
58731;SDS011;44508;44.626;21.182;2023-02-23T09:29:28;28.83;;;12.25;;
58731;SDS011;44508;44.626;21.182;2023-02-23T09:31:56;21.83;;;10.73;;
58731;SDS011;44508;44.626;21.182;2023-02-23T09:34:22;22.50;;;10.40;;
58731;SDS011;44508;44.626;21.182;2023-02-23T09:36:48;23.75;;;10.90;;
58731;SDS011;44508;44.626;21.182;2023-02-23T09:39:16;20.42;;;10.65;;
58731;SDS011;44508;44.626;21.182;2023-02-23T09:41:45;24.58;;;11.27;;
58731;SDS011;44508;44.626;21.182;2023-02-23T09:44:25;21.40;;;11.25;;
58731;SDS011;44508;44.626;21.182;2023-02-23T09:49:40;19.95;;;9.00;;
58731;SDS011;44508;44.626;21.182;2023-02-23T09:52:09;17.40;;;9.30;;
58731;SDS011;44508;44.626;21.182;2023-02-23T09:54:39;22.02;;;9.82;;
58731;SDS011;44508;44.626;21.182;2023-02-23T09:57:09;17.42;;;8.75;;
58731;SDS011;44508;44.626;21.182;2023-02-23T09:59:37;19.63;;;9.77;;
58731;SDS011;44508;44.626;21.182;2023-02-23T10:04:46;17.58;;;9.57;;
58731;SDS011;44508;44.626;21.182;2023-02-23T10:12:09;14.43;;;8.02;;
58731;SDS011;44508;44.626;21.182;2023-02-23T10:20:45;18.85;;;10.43;;
58731;SDS011;44508;44.626;21.182;2023-02-23T10:22:39;18.92;;;10.13;;
58731;SDS011;44508;44.626;21.182;2023-02-23T10:25:12;18.75;;;10.75;;
58731;SDS011;44508;44.626;21.182;2023-02-23T10:27:40;18.77;;;10.10;;
58731;SDS011;44508;44.626;21.182;2023-02-23T10:30:15;14.48;;;9.65;;
58731;SDS011;44508;44.626;21.182;2023-02-23T10:32:55;15.70;;;9.18;;
58731;SDS011;44508;44.626;21.182;2023-02-23T10:35:22;16.50;;;8.93;;
58731;SDS011;44508;44.626;21.182;2023-02-23T10:37:49;28.33;;;10.40;;
58731;SDS011;44508;44.626;21.182;2023-02-23T10:40:17;15.65;;;10.02;;
58731;SDS011;44508;44.626;21.182;2023-02-23T10:42:45;15.27;;;9.52;;
58731;SDS011;44508;44.626;21.182;2023-02-23T10:45:12;17.95;;;9.20;;
58731;SDS011;44508;44.626;21.182;2023-02-23T10:47:42;13.75;;;8.45;;
58731;SDS011;44508;44.626;21.182;2023-02-23T10:50:09;18.35;;;9.20;;
58731;SDS011;44508;44.626;21.182;2023-02-23T10:52:43;19.27;;;9.80;;
58731;SDS011;44508;44.626;21.182;2023-02-23T10:57:47;19.35;;;10.10;;
58731;SDS011;44508;44.626;21.182;2023-02-23T11:02:44;19.15;;;9.57;;
58731;SDS011;44508;44.626;21.182;2023-02-23T11:08:07;15.85;;;8.10;;
58731;SDS011;44508;44.626;21.182;2023-02-23T11:12:59;19.67;;;9.35;;
58731;SDS011;44508;44.626;21.182;2023-02-23T11:15:32;22.02;;;9.68;;
58731;SDS011;44508;44.626;21.182;2023-02-23T11:18:00;13.93;;;8.80;;
58731;SDS011;44508;44.626;21.182;2023-02-23T11:20:30;22.73;;;9.52;;
58731;SDS011;44508;44.626;21.182;2023-02-23T11:23:00;17.65;;;10.23;;
58731;SDS011;44508;44.626;21.182;2023-02-23T11:25:29;13.35;;;7.93;;
58731;SDS011;44508;44.626;21.182;2023-02-23T11:27:56;16.00;;;8.63;;
58731;SDS011;44508;44.626;21.182;2023-02-23T11:30:33;23.35;;;10.43;;
58731;SDS011;44508;44.626;21.182;2023-02-23T11:33:06;16.00;;;9.10;;
58731;SDS011;44508;44.626;21.182;2023-02-23T11:35:36;17.75;;;10.35;;
58731;SDS011;44508;44.626;21.182;2023-02-23T11:38:25;22.05;;;9.75;;
58731;SDS011;44508;44.626;21.182;2023-02-23T11:40:59;15.93;;;9.30;;
58731;SDS011;44508;44.626;21.182;2023-02-23T11:43:25;18.85;;;9.85;;
58731;SDS011;44508;44.626;21.182;2023-02-23T11:45:52;20.30;;;9.73;;
58731;SDS011;44508;44.626;21.182;2023-02-23T11:50:52;15.95;;;8.98;;
58731;SDS011;44508;44.626;21.182;2023-02-23T11:53:34;21.10;;;11.25;;
58731;SDS011;44508;44.626;21.182;2023-02-23T11:56:01;16.98;;;7.95;;
58731;SDS011;44508;44.626;21.182;2023-02-23T11:58:39;15.45;;;8.68;;
58731;SDS011;44508;44.626;21.182;2023-02-23T12:01:08;15.82;;;8.93;;
58731;SDS011;44508;44.626;21.182;2023-02-23T12:03:47;17.08;;;9.65;;
58731;SDS011;44508;44.626;21.182;2023-02-23T12:06:33;16.60;;;9.65;;
58731;SDS011;44508;44.626;21.182;2023-02-23T12:09:22;19.73;;;9.77;;
58731;SDS011;44508;44.626;21.182;2023-02-23T12:11:51;18.85;;;9.65;;
58731;SDS011;44508;44.626;21.182;2023-02-23T12:14:23;15.45;;;8.38;;
58731;SDS011;44508;44.626;21.182;2023-02-23T12:16:56;17.80;;;9.25;;
58731;SDS011;44508;44.626;21.182;2023-02-23T12:19:42;15.23;;;8.20;;
58731;SDS011;44508;44.626;21.182;2023-02-23T12:22:14;17.42;;;9.27;;
58731;SDS011;44508;44.626;21.182;2023-02-23T12:27:14;17.20;;;8.10;;
58731;SDS011;44508;44.626;21.182;2023-02-23T12:32:13;13.98;;;7.60;;
58731;SDS011;44508;44.626;21.182;2023-02-23T12:39:53;20.88;;;8.48;;
58731;SDS011;44508;44.626;21.182;2023-02-23T12:42:22;14.85;;;8.38;;
58731;SDS011;44508;44.626;21.182;2023-02-23T12:44:51;14.40;;;7.53;;
58731;SDS011;44508;44.626;21.182;2023-02-23T12:49:52;15.45;;;8.48;;
58731;SDS011;44508;44.626;21.182;2023-02-23T12:52:22;23.55;;;10.63;;
58731;SDS011;44508;44.626;21.182;2023-02-23T12:54:50;19.27;;;9.85;;
58731;SDS011;44508;44.626;21.182;2023-02-23T12:57:20;28.67;;;11.13;;
58731;SDS011;44508;44.626;21.182;2023-02-23T13:02:20;15.38;;;8.55;;
58731;SDS011;44508;44.626;21.182;2023-02-23T13:07:28;15.70;;;8.32;;
58731;SDS011;44508;44.626;21.182;2023-02-23T13:10:12;14.70;;;7.95;;
58731;SDS011;44508;44.626;21.182;2023-02-23T13:20:19;10.95;;;6.70;;
58731;SDS011;44508;44.626;21.182;2023-02-23T13:22:57;16.40;;;8.15;;
58731;SDS011;44508;44.626;21.182;2023-02-23T13:25:31;17.42;;;8.45;;
58731;SDS011;44508;44.626;21.182;2023-02-23T13:28:02;14.15;;;9.07;;
58731;SDS011;44508;44.626;21.182;2023-02-23T13:30:29;13.10;;;8.25;;
58731;SDS011;44508;44.626;21.182;2023-02-23T13:33:02;19.75;;;9.57;;
58731;SDS011;44508;44.626;21.182;2023-02-23T13:35:29;15.90;;;8.27;;
58731;SDS011;44508;44.626;21.182;2023-02-23T13:40:30;13.52;;;8.60;;
58731;SDS011;44508;44.626;21.182;2023-02-23T13:52:55;13.55;;;8.00;;
58731;SDS011;44508;44.626;21.182;2023-02-23T13:57:55;19.05;;;8.93;;
58731;SDS011;44508;44.626;21.182;2023-02-23T14:00:27;15.60;;;8.82;;
58731;SDS011;44508;44.626;21.182;2023-02-23T14:02:53;17.23;;;8.98;;
58731;SDS011;44508;44.626;21.182;2023-02-23T14:05:21;17.58;;;9.48;;
58731;SDS011;44508;44.626;21.182;2023-02-23T14:07:52;13.00;;;8.50;;
58731;SDS011;44508;44.626;21.182;2023-02-23T14:10:19;13.75;;;7.95;;
58731;SDS011;44508;44.626;21.182;2023-02-23T14:18:01;25.38;;;10.57;;
58731;SDS011;44508;44.626;21.182;2023-02-23T14:23:04;16.85;;;8.70;;
58731;SDS011;44508;44.626;21.182;2023-02-23T14:28:02;16.80;;;8.82;;
58731;SDS011;44508;44.626;21.182;2023-02-23T14:30:47;16.30;;;9.48;;
58731;SDS011;44508;44.626;21.182;2023-02-23T14:36:00;19.73;;;10.05;;
58731;SDS011;44508;44.626;21.182;2023-02-23T14:40:53;19.10;;;9.88;;
58731;SDS011;44508;44.626;21.182;2023-02-23T14:46:09;12.52;;;8.18;;
58731;SDS011;44508;44.626;21.182;2023-02-23T14:48:36;17.48;;;8.80;;
58731;SDS011;44508;44.626;21.182;2023-02-23T14:51:14;17.45;;;9.65;;
58731;SDS011;44508;44.626;21.182;2023-02-23T14:53:45;17.85;;;9.02;;
58731;SDS011;44508;44.626;21.182;2023-02-23T14:56:18;17.45;;;8.80;;
58731;SDS011;44508;44.626;21.182;2023-02-23T14:58:48;14.80;;;9.73;;
58731;SDS011;44508;44.626;21.182;2023-02-23T15:01:30;23.05;;;8.35;;
58731;SDS011;44508;44.626;21.182;2023-02-23T15:04:06;16.27;;;9.30;;
58731;SDS011;44508;44.626;21.182;2023-02-23T15:06:33;23.40;;;9.68;;
58731;SDS011;44508;44.626;21.182;2023-02-23T15:08:59;15.52;;;9.27;;
58731;SDS011;44508;44.626;21.182;2023-02-23T15:11:26;13.90;;;8.70;;
58731;SDS011;44508;44.626;21.182;2023-02-23T15:13:55;18.52;;;10.30;;
58731;SDS011;44508;44.626;21.182;2023-02-23T15:16:32;23.45;;;9.95;;
58731;SDS011;44508;44.626;21.182;2023-02-23T15:18:59;15.80;;;8.70;;
58731;SDS011;44508;44.626;21.182;2023-02-23T15:21:26;21.02;;;10.40;;
58731;SDS011;44508;44.626;21.182;2023-02-23T15:24:05;21.30;;;10.52;;
58731;SDS011;44508;44.626;21.182;2023-02-23T15:26:32;21.38;;;10.35;;
58731;SDS011;44508;44.626;21.182;2023-02-23T15:29:18;15.00;;;9.05;;
58731;SDS011;44508;44.626;21.182;2023-02-23T15:31:46;20.38;;;9.40;;
58731;SDS011;44508;44.626;21.182;2023-02-23T15:36:46;20.65;;;10.50;;
58731;SDS011;44508;44.626;21.182;2023-02-23T15:39:14;15.65;;;9.43;;
58731;SDS011;44508;44.626;21.182;2023-02-23T15:41:42;17.45;;;9.68;;
58731;SDS011;44508;44.626;21.182;2023-02-23T15:44:24;15.35;;;9.18;;
58731;SDS011;44508;44.626;21.182;2023-02-23T15:49:41;19.15;;;10.25;;
58731;SDS011;44508;44.626;21.182;2023-02-23T15:52:08;18.77;;;9.75;;
58731;SDS011;44508;44.626;21.182;2023-02-23T15:54:36;23.77;;;10.27;;
58731;SDS011;44508;44.626;21.182;2023-02-23T15:57:05;16.23;;;9.55;;
58731;SDS011;44508;44.626;21.182;2023-02-23T15:59:38;17.48;;;9.88;;
58731;SDS011;44508;44.626;21.182;2023-02-23T16:02:11;22.15;;;9.77;;
58731;SDS011;44508;44.626;21.182;2023-02-23T16:04:40;17.02;;;9.18;;
58731;SDS011;44508;44.626;21.182;2023-02-23T16:07:13;24.80;;;11.43;;
58731;SDS011;44508;44.626;21.182;2023-02-23T16:09:46;24.42;;;12.30;;
58731;SDS011;44508;44.626;21.182;2023-02-23T16:12:14;24.75;;;13.63;;
58731;SDS011;44508;44.626;21.182;2023-02-23T16:14:52;29.20;;;16.17;;
58731;SDS011;44508;44.626;21.182;2023-02-23T16:19:45;32.38;;;14.90;;
58731;SDS011;44508;44.626;21.182;2023-02-23T16:22:29;28.50;;;14.63;;
58731;SDS011;44508;44.626;21.182;2023-02-23T16:24:58;21.83;;;13.30;;
58731;SDS011;44508;44.626;21.182;2023-02-23T16:27:25;24.90;;;12.77;;
58731;SDS011;44508;44.626;21.182;2023-02-23T16:29:55;22.15;;;12.23;;
58731;SDS011;44508;44.626;21.182;2023-02-23T16:32:30;26.55;;;13.85;;
58731;SDS011;44508;44.626;21.182;2023-02-23T16:35:00;22.30;;;12.18;;
58731;SDS011;44508;44.626;21.182;2023-02-23T16:37:27;22.25;;;11.23;;
58731;SDS011;44508;44.626;21.182;2023-02-23T16:39:54;21.50;;;11.73;;
58731;SDS011;44508;44.626;21.182;2023-02-23T16:44:46;22.67;;;11.35;;